Urb La Inmaculada, Puerto Rico
Current Conditions -  °F | °C
As of 10:53 AM on Friday 24 Oct 2014 (Local Time) from TJNR Reporting Station
Few Clouds Few Clouds  
Wind Chill: 90°   Ceiling: Unl
Heat Index: 101°   Visibility: 10mi
Dew Point: 76°   Wind: 12mph
Humidity: 63%   Direction: 170°S
Pressure: 29.99"   Gusts: NA
Location:  18.1853°N, 65.8667°W
Report Text: TJNR 241453Z AUTO 17010KT 10SM FEW027 32/24 A2999 RMK AO2 SLP155 60000 T03220244 50006 $
Loading
Personal Weather Stations






























Interactive Weather Map
Tropical Storm Tracking
New forecast layout! Learn more

10-Day Weather Forecast

Advertisements
Track Severe Weather on mobile